Time;durP1;ratioP1;P1;durP2;ratioP2;P2;SDS_P1;SDS_P2;PMS_P1;PMS_P2;Temp;Humidity;BMP_temperature;BMP_pressure;BME280_temperature;BME280_humidity;BME280_pressure;Samples;Min_cycle;Max_cycle;Signal;HPM_P1;HPM_P2
2023/12/21 05:55:52;;;;;;;0.40;0.40;;;5.60;99.90;;;;;;5036716;28;20205;-94
2023/12/21 05:58:18;;;;;;;0.90;0.50;;;5.60;99.90;;;;;;5018281;28;20178;-94
2023/12/21 06:00:44;;;;;;;0.40;0.40;;;5.60;99.90;;;;;;5037154;28;20209;-94
2023/12/21 06:03:09;;;;;;;0.83;0.67;;;5.60;99.90;;;;;;5018141;28;20198;-93
2023/12/21 06:05:39;;;;;;;1.23;1.00;;;5.60;99.90;;;;;;5017995;28;20176;-93
2023/12/21 06:08:06;;;;;;;0.50;0.47;;;5.60;99.90;;;;;;5017007;28;20183;-93
2023/12/21 06:10:33;;;;;;;1.33;0.47;;;5.70;99.90;;;;;;5000705;28;20237;-93
2023/12/21 06:12:59;;;;;;;1.90;0.50;;;5.70;99.90;;;;;;5017276;28;20192;-93
2023/12/21 06:15:26;;;;;;;0.60;0.60;;;5.70;99.90;;;;;;5017514;28;20235;-93
2023/12/21 06:17:52;;;;;;;0.53;0.53;;;5.70;99.90;;;;;;5000770;28;20214;-93
2023/12/21 06:20:18;;;;;;;0.80;0.67;;;5.70;99.90;;;;;;5017396;28;20207;-94
2023/12/21 06:22:44;;;;;;;1.37;1.13;;;5.60;99.90;;;;;;5017050;28;20245;-88
2023/12/21 06:25:11;;;;;;;2.40;1.67;;;5.60;99.90;;;;;;5017542;28;20176;-93
2023/12/21 06:27:37;;;;;;;1.43;0.53;;;5.60;99.90;;;;;;5017279;28;20184;-94
2023/12/21 06:30:04;;;;;;;0.70;0.70;;;5.60;99.90;;;;;;5033544;28;20300;-93
2023/12/21 06:32:30;;;;;;;0.87;0.87;;;5.60;99.90;;;;;;5017411;28;20179;-94
2023/12/21 06:34:56;;;;;;;0.40;0.40;;;5.60;99.90;;;;;;5017302;28;20205;-94
2023/12/21 06:37:22;;;;;;;0.67;0.60;;;5.70;99.90;;;;;;5017665;28;20174;-94
2023/12/21 06:43:37;;;;;;;0.50;0.50;;;5.60;99.90;;;;;;5017283;28;20244;-94
2023/12/21 06:46:04;;;;;;;1.40;0.70;;;5.60;99.90;;;;;;5002528;28;20169;-95
2023/12/21 06:48:30;;;;;;;1.57;0.53;;;5.60;99.90;;;;;;5001145;28;20187;-94
2023/12/21 07:51:35;;;;;;;1.17;1.07;;;6.20;99.90;;;;;;5053421;28;20193;-84
2023/12/21 07:54:01;;;;;;;1.97;1.33;;;6.20;99.90;;;;;;5013328;28;20194;-86
2023/12/21 07:56:27;;;;;;;1.10;1.00;;;6.20;99.90;;;;;;5013039;28;20216;-91
2023/12/21 07:58:54;;;;;;;2.30;1.00;;;6.20;99.90;;;;;;4999616;28;20183;-93
2023/12/21 08:01:19;;;;;;;1.80;1.10;;;6.20;99.90;;;;;;5015777;28;20221;-93
2023/12/21 08:03:45;;;;;;;0.63;0.63;;;6.30;99.90;;;;;;5016617;28;20205;-93
2023/12/21 08:06:22;;;;;;;0.90;0.77;;;6.30;99.90;;;;;;5031800;28;20189;-94
2023/12/21 08:08:49;;;;;;;1.60;1.30;;;6.30;99.90;;;;;;4999441;28;20205;-93
2023/12/21 08:11:16;;;;;;;1.50;1.40;;;6.30;99.90;;;;;;4999891;28;20237;-93
2023/12/21 08:13:42;;;;;;;1.57;1.10;;;6.30;99.90;;;;;;4999890;28;20192;-93
2023/12/21 08:16:08;;;;;;;2.00;0.70;;;6.40;99.90;;;;;;5015807;28;20273;-93
2023/12/21 08:18:34;;;;;;;1.07;0.83;;;6.40;99.90;;;;;;4999451;28;20293;-93
2023/12/21 08:21:00;;;;;;;3.77;1.80;;;6.40;99.90;;;;;;4999958;28;20198;-93
2023/12/21 08:23:26;;;;;;;1.60;1.50;;;6.50;99.90;;;;;;5035246;28;20205;-93
2023/12/21 08:25:51;;;;;;;2.70;1.43;;;6.50;99.90;;;;;;5028024;28;20205;-93
2023/12/21 08:28:17;;;;;;;1.03;0.73;;;6.50;99.90;;;;;;5023931;28;20178;-92
2023/12/21 08:30:44;;;;;;;0.90;0.80;;;6.50;99.90;;;;;;5021425;28;20270;-93
2023/12/21 08:33:09;;;;;;;0.63;0.63;;;6.60;99.90;;;;;;5019173;28;20243;-93
2023/12/21 08:35:36;;;;;;;0.40;0.40;;;6.60;99.90;;;;;;5002917;28;20179;-93
2023/12/21 08:38:03;;;;;;;0.30;0.30;;;6.80;99.90;;;;;;5018838;28;20178;-93
2023/12/21 08:40:30;;;;;;;0.47;0.40;;;7.00;99.90;;;;;;5036313;28;20278;-93
2023/12/21 08:42:56;;;;;;;0.60;0.57;;;7.30;99.90;;;;;;5016679;28;20209;-93
2023/12/21 08:45:22;;;;;;;0.83;0.40;;;7.30;99.90;;;;;;5002604;28;20174;-93
2023/12/21 08:47:50;;;;;;;0.30;0.30;;;7.40;99.90;;;;;;5025916;28;20203;-93
2023/12/21 08:50:17;;;;;;;1.83;0.70;;;7.50;99.90;;;;;;5015945;28;20201;-93
2023/12/21 08:52:44;;;;;;;1.40;0.67;;;7.60;99.90;;;;;;5011974;28;20194;-93
2023/12/21 08:55:10;;;;;;;0.93;0.40;;;7.60;99.90;;;;;;5041388;28;20201;-93
2023/12/21 08:57:36;;;;;;;0.23;0.23;;;7.60;99.90;;;;;;5001241;28;20187;-93
2023/12/21 09:00:05;;;;;;;1.00;0.40;;;7.70;99.90;;;;;;5017558;28;20194;-93
2023/12/21 09:02:33;;;;;;;0.30;0.30;;;7.70;99.90;;;;;;5001197;28;20190;-93
2023/12/21 09:05:00;;;;;;;2.70;0.40;;;7.70;99.90;;;;;;5001775;28;20189;-93
2023/12/21 09:07:26;;;;;;;0.43;0.40;;;7.70;99.90;;;;;;5001304;28;20190;-92
2023/12/21 09:09:53;;;;;;;0.30;0.30;;;7.70;99.90;;;;;;5038468;28;20247;-92
2023/12/21 09:12:21;;;;;;;1.50;0.50;;;7.80;99.90;;;;;;5022881;28;20181;-92
2023/12/21 09:14:48;;;;;;;0.67;0.67;;;7.70;99.90;;;;;;5021065;28;20240;-93
2023/12/21 09:17:14;;;;;;;1.80;0.50;;;7.70;99.90;;;;;;5035544;28;20186;-93
2023/12/21 09:19:41;;;;;;;0.40;0.40;;;7.70;99.90;;;;;;5003418;28;20199;-92
2023/12/21 09:22:07;;;;;;;0.70;0.30;;;7.70;99.90;;;;;;5032946;28;20194;-93
2023/12/21 09:24:33;;;;;;;1.50;1.03;;;7.70;99.90;;;;;;5016295;28;20273;-93
2023/12/21 09:26:59;;;;;;;1.03;0.60;;;7.70;99.90;;;;;;5043503;28;20654;-93
2023/12/21 09:29:27;;;;;;;0.33;0.30;;;7.70;99.90;;;;;;5016600;28;20203;-94
2023/12/21 09:31:56;;;;;;;0.97;0.50;;;7.70;99.90;;;;;;5028663;28;20269;-93
2023/12/21 09:34:23;;;;;;;0.30;0.30;;;7.70;99.90;;;;;;5029326;28;20182;-92
2023/12/21 09:36:49;;;;;;;1.40;0.50;;;7.80;99.90;;;;;;5019579;28;20181;-93
2023/12/21 09:39:16;;;;;;;1.57;0.67;;;7.80;99.90;;;;;;5009973;28;20200;-93
2023/12/21 09:41:46;;;;;;;0.30;0.30;;;7.80;99.90;;;;;;5014875;28;20190;-93
2023/12/21 09:44:17;;;;;;;0.50;0.50;;;7.80;99.90;;;;;;5028239;28;20198;-93
2023/12/21 09:46:45;;;;;;;0.50;0.50;;;7.80;99.90;;;;;;5024772;28;20202;-92
2023/12/21 09:49:17;;;;;;;0.30;0.30;;;7.80;99.90;;;;;;5007931;28;20178;-93
2023/12/21 09:51:45;;;;;;;0.30;0.30;;;7.80;99.90;;;;;;5016521;28;20190;-93
2023/12/21 09:54:12;;;;;;;0.50;0.50;;;7.80;99.90;;;;;;5026525;28;20197;-94
2023/12/21 09:56:40;;;;;;;0.90;0.57;;;7.80;99.90;;;;;;5044010;28;20185;-94
2023/12/21 09:59:08;;;;;;;0.50;0.50;;;7.80;99.90;;;;;;5027728;28;20245;-93
2023/12/21 10:01:34;;;;;;;0.43;0.43;;;7.90;99.90;;;;;;5014011;28;20189;-93
2023/12/21 10:04:01;;;;;;;0.30;0.30;;;7.80;99.90;;;;;;5006814;28;20209;-93
2023/12/21 10:06:27;;;;;;;0.37;0.30;;;7.80;99.90;;;;;;5014894;28;20182;-94
2023/12/21 10:08:55;;;;;;;0.57;0.50;;;7.80;99.90;;;;;;5014609;28;20183;-93
2023/12/21 10:11:22;;;;;;;0.30;0.30;;;7.80;99.90;;;;;;5023332;28;20178;-93
2023/12/21 10:13:48;;;;;;;0.40;0.40;;;7.90;99.90;;;;;;5009642;28;20205;-93
2023/12/21 10:16:16;;;;;;;0.30;0.20;;;7.90;99.90;;;;;;5014487;28;20190;-93
2023/12/21 10:18:43;;;;;;;0.40;0.40;;;7.90;99.90;;;;;;5016240;28;20186;-93
2023/12/21 10:21:10;;;;;;;2.67;0.60;;;7.90;99.90;;;;;;5032164;28;20198;-93
2023/12/21 10:23:41;;;;;;;0.60;0.60;;;8.00;99.90;;;;;;5023419;28;20776;-92
2023/12/21 10:26:07;;;;;;;0.50;0.40;;;7.90;99.90;;;;;;5021966;28;20197;-92
2023/12/21 10:28:34;;;;;;;0.40;0.40;;;7.90;99.90;;;;;;5039533;28;20205;-85
2023/12/21 10:31:04;;;;;;;1.60;0.50;;;7.90;99.90;;;;;;5014733;28;20190;-86
2023/12/21 10:33:32;;;;;;;0.43;0.40;;;7.90;99.90;;;;;;5024324;28;20178;-85
2023/12/21 10:35:58;;;;;;;0.70;0.70;;;7.90;99.90;;;;;;5004336;28;20187;-86
2023/12/21 10:38:24;;;;;;;0.60;0.60;;;7.90;99.90;;;;;;5019655;28;20170;-86
2023/12/21 10:40:51;;;;;;;1.03;0.40;;;7.90;99.90;;;;;;5029808;28;20218;-95
2023/12/21 10:43:19;;;;;;;0.40;0.40;;;8.00;99.90;;;;;;5040155;28;20225;-95
2023/12/21 10:46:25;;;;;;;1.17;0.53;;;8.00;99.90;;;;;;5067114;28;20187;-94
2023/12/21 10:48:59;;;;;;;0.40;0.40;;;8.00;99.90;;;;;;5052150;28;20181;-95
2023/12/21 10:51:35;;;;;;;0.30;0.30;;;8.00;99.90;;;;;;5040916;28;20162;-95
2023/12/21 10:54:10;;;;;;;0.40;0.40;;;8.00;99.90;;;;;;5072394;28;20202;-94
2023/12/21 10:56:41;;;;;;;0.40;0.40;;;8.00;99.90;;;;;;5050681;28;20197;-95
2023/12/21 10:59:12;;;;;;;0.40;0.40;;;8.00;99.90;;;;;;5053718;28;20174;-94
2023/12/21 11:01:42;;;;;;;0.70;0.70;;;8.00;99.90;;;;;;5052440;28;20166;-94
2023/12/21 11:04:12;;;;;;;0.80;0.60;;;8.00;99.90;;;;;;5037664;28;20209;-95
2023/12/21 11:06:43;;;;;;;0.30;0.30;;;8.00;99.90;;;;;;5036503;28;20210;-94
2023/12/21 11:09:11;;;;;;;0.50;0.50;;;8.00;99.90;;;;;;5018067;28;20183;-94
2023/12/21 11:11:39;;;;;;;0.50;0.50;;;8.00;99.90;;;;;;5035671;28;20178;-95
2023/12/21 11:14:07;;;;;;;0.40;0.40;;;8.10;99.90;;;;;;5019684;28;20182;-95
2023/12/21 11:16:41;;;;;;;0.70;0.50;;;8.10;99.90;;;;;;5019180;28;20190;-95
2023/12/21 11:19:11;;;;;;;0.77;0.70;;;8.00;99.90;;;;;;5016468;28;20187;-95
2023/12/21 11:21:39;;;;;;;0.40;0.40;;;8.00;99.90;;;;;;5033673;28;20174;-94
2023/12/21 11:24:05;;;;;;;0.47;0.40;;;8.00;99.90;;;;;;5043615;28;20209;-95
2023/12/21 11:26:31;;;;;;;0.30;0.30;;;8.10;99.90;;;;;;5037814;28;20238;-95
2023/12/21 11:29:10;;;;;;;0.30;0.30;;;8.00;99.90;;;;;;5051897;28;20182;-95
2023/12/21 11:31:41;;;;;;;0.30;0.30;;;8.00;99.90;;;;;;5051084;28;20177;-94
2023/12/21 11:34:16;;;;;;;0.50;0.50;;;8.00;99.90;;;;;;5051634;28;20193;-95
2023/12/21 11:36:44;;;;;;;0.33;0.30;;;8.00;99.90;;;;;;5039816;28;20174;-95
2023/12/21 11:42:59;;;;;;;0.37;0.37;;;8.10;99.90;;;;;;5054649;23;20719;-42
2023/12/21 11:45:28;;;;;;;0.77;0.40;;;8.10;99.90;;;;;;5053689;28;20185;-42
2023/12/21 11:47:55;;;;;;;1.10;0.40;;;8.10;99.90;;;;;;5027549;28;20178;-42
2023/12/21 11:50:26;;;;;;;1.23;0.90;;;8.10;99.90;;;;;;5031292;28;20453;-42
2023/12/21 11:53:09;;;;;;;0.60;0.60;;;8.20;99.90;;;;;;5025923;28;20211;-42
2023/12/21 11:55:38;;;;;;;0.77;0.70;;;8.20;99.90;;;;;;5040476;28;20182;-43
2023/12/21 11:58:09;;;;;;;1.80;0.50;;;8.20;99.90;;;;;;5033056;28;20257;-43
2023/12/21 12:00:43;;;;;;;0.30;0.30;;;8.30;99.90;;;;;;5033954;28;20217;-42
2023/12/21 12:03:11;;;;;;;0.67;0.67;;;8.30;99.90;;;;;;5033454;28;20217;-42
2023/12/21 12:05:38;;;;;;;0.40;0.40;;;8.30;99.90;;;;;;5025658;28;20182;-43
2023/12/21 12:08:07;;;;;;;0.40;0.40;;;8.30;99.90;;;;;;5028505;28;20186;-42
2023/12/21 12:10:35;;;;;;;1.33;0.90;;;8.30;99.90;;;;;;5036596;28;20266;-42
2023/12/21 12:13:04;;;;;;;1.10;0.60;;;8.30;99.90;;;;;;5031062;28;20271;-42
2023/12/21 12:15:33;;;;;;;1.07;0.80;;;8.30;99.90;;;;;;5025226;28;20218;-43
2023/12/21 12:18:00;;;;;;;1.67;1.00;;;8.30;99.90;;;;;;5030834;28;20183;-42
2023/12/21 12:20:28;;;;;;;0.77;0.67;;;8.30;99.90;;;;;;5034293;28;20208;-42
2023/12/21 12:22:55;;;;;;;0.70;0.60;;;8.30;99.90;;;;;;5032296;28;20305;-42
2023/12/21 12:25:21;;;;;;;2.67;1.10;;;8.30;99.90;;;;;;5027449;28;20278;-42
2023/12/21 12:27:47;;;;;;;1.87;0.90;;;8.30;99.90;;;;;;5019896;28;20272;-42
2023/12/21 12:30:13;;;;;;;0.40;0.40;;;8.30;99.90;;;;;;5033266;28;20197;-42
2023/12/21 12:32:40;;;;;;;1.63;1.50;;;8.40;99.90;;;;;;5037450;28;20197;-42
2023/12/21 12:35:09;;;;;;;1.43;1.03;;;8.40;99.90;;;;;;5034498;28;20173;-42
2023/12/21 12:37:36;;;;;;;2.03;1.60;;;8.40;99.90;;;;;;5030754;28;20186;-42
2023/12/21 12:40:04;;;;;;;0.67;0.60;;;8.40;99.90;;;;;;5020580;28;20264;-42
2023/12/21 12:42:31;;;;;;;0.70;0.60;;;8.50;99.90;;;;;;5034775;28;20251;-42
2023/12/21 12:44:59;;;;;;;0.60;0.60;;;8.50;99.90;;;;;;5044169;28;20192;-42
2023/12/21 12:47:26;;;;;;;0.70;0.50;;;8.50;99.90;;;;;;5052145;28;20217;-42
2023/12/21 12:49:53;;;;;;;3.33;0.60;;;8.50;99.90;;;;;;5019777;28;21172;-41
2023/12/21 12:52:21;;;;;;;0.23;0.23;;;8.50;99.90;;;;;;5024908;28;20200;-42
2023/12/21 12:54:47;;;;;;;0.40;0.40;;;8.50;99.90;;;;;;5037113;28;20250;-43
2023/12/21 12:57:17;;;;;;;0.73;0.50;;;8.50;99.90;;;;;;5032546;28;20185;-42
2023/12/21 12:59:45;;;;;;;2.63;0.70;;;8.50;99.90;;;;;;5059093;28;20196;-42
2023/12/21 13:02:11;;;;;;;0.43;0.43;;;8.50;99.90;;;;;;5037199;28;20233;-42
2023/12/21 13:04:39;;;;;;;0.33;0.30;;;8.50;99.90;;;;;;5025929;28;20209;-42
2023/12/21 13:07:09;;;;;;;0.40;0.40;;;8.50;99.90;;;;;;5021567;28;20240;-42
2023/12/21 13:09:36;;;;;;;0.47;0.47;;;8.50;99.90;;;;;;5039094;28;20183;-42
2023/12/21 13:12:03;;;;;;;0.30;0.30;;;8.50;99.90;;;;;;5027309;28;20198;-42
2023/12/21 13:14:29;;;;;;;0.50;0.50;;;8.50;99.90;;;;;;5040186;28;20182;-42
2023/12/21 13:16:55;;;;;;;0.83;0.70;;;8.50;99.90;;;;;;5059010;28;20193;-43
2023/12/21 13:19:23;;;;;;;0.60;0.60;;;8.40;99.90;;;;;;5032553;28;20213;-42
2023/12/21 13:21:49;;;;;;;0.50;0.50;;;8.40;99.90;;;;;;5002073;28;20719;-42
2023/12/21 13:24:16;;;;;;;0.40;0.40;;;8.50;99.90;;;;;;5024805;28;20205;-42
2023/12/21 13:26:43;;;;;;;0.50;0.50;;;8.40;99.90;;;;;;5019096;28;20244;-42
2023/12/21 13:29:11;;;;;;;1.00;0.53;;;8.50;99.90;;;;;;5008009;28;20178;-42
2023/12/21 13:31:37;;;;;;;0.80;0.50;;;8.40;99.90;;;;;;5020139;28;20202;-42
2023/12/21 13:34:03;;;;;;;0.70;0.70;;;8.40;99.90;;;;;;5021211;28;20197;-42
2023/12/21 13:36:29;;;;;;;1.73;1.37;;;8.40;99.90;;;;;;5006886;28;20196;-42
2023/12/21 13:38:56;;;;;;;1.10;0.80;;;8.40;99.90;;;;;;5025364;28;20186;-42
2023/12/21 13:41:22;;;;;;;4.60;2.60;;;8.40;99.90;;;;;;5020717;28;20210;-42
2023/12/21 13:43:48;;;;;;;3.53;2.57;;;8.30;99.90;;;;;;5020743;28;20260;-41
2023/12/21 13:46:17;;;;;;;2.50;2.30;;;8.40;99.90;;;;;;5021241;28;20240;-42
2023/12/21 13:48:44;;;;;;;0.50;0.50;;;8.30;99.90;;;;;;5024582;28;20180;-42
2023/12/21 13:51:10;;;;;;;1.40;1.30;;;8.30;99.90;;;;;;5025993;28;20189;-43
2023/12/21 13:53:36;;;;;;;1.50;1.40;;;8.30;99.90;;;;;;5034643;28;20185;-43
2023/12/21 13:56:03;;;;;;;2.20;1.80;;;8.30;99.90;;;;;;5034641;28;20231;-43
2023/12/21 13:58:29;;;;;;;1.30;1.20;;;8.30;99.90;;;;;;5031914;28;20193;-42
2023/12/21 14:00:56;;;;;;;1.30;1.10;;;8.20;99.90;;;;;;5035283;28;20186;-43
2023/12/21 14:03:23;;;;;;;1.37;0.70;;;8.30;99.90;;;;;;5041507;28;20232;-42
2023/12/21 14:05:48;;;;;;;1.33;1.00;;;8.30;99.90;;;;;;5042125;28;20186;-42
2023/12/21 14:08:14;;;;;;;3.10;1.70;;;8.30;99.90;;;;;;5036863;28;20269;-42
2023/12/21 14:10:46;;;;;;;4.73;2.60;;;8.40;99.90;;;;;;5039113;28;20188;-42
2023/12/21 14:13:13;;;;;;;3.80;2.70;;;8.40;99.90;;;;;;5051290;28;20210;-42
2023/12/21 14:15:39;;;;;;;1.33;1.10;;;8.40;99.90;;;;;;5045249;28;20208;-43
2023/12/21 14:18:05;;;;;;;1.17;1.07;;;8.40;99.90;;;;;;5042178;28;20228;-42
2023/12/21 14:20:32;;;;;;;2.50;1.20;;;8.40;99.90;;;;;;5041075;28;20193;-42
2023/12/21 14:22:58;;;;;;;3.97;2.30;;;8.40;99.90;;;;;;5030591;28;20216;-43
2023/12/21 14:25:24;;;;;;;3.40;1.63;;;8.40;99.90;;;;;;5050073;28;20177;-44
2023/12/21 14:27:50;;;;;;;1.10;0.73;;;8.30;99.90;;;;;;5035211;28;20177;-44
2023/12/21 14:30:18;;;;;;;4.87;2.60;;;8.40;99.90;;;;;;5048351;28;20170;-43
2023/12/21 14:32:46;;;;;;;4.47;2.40;;;8.40;99.90;;;;;;5050834;28;20209;-43
2023/12/21 14:35:12;;;;;;;4.00;2.00;;;8.40;99.90;;;;;;5035307;28;20178;-43
2023/12/21 14:37:39;;;;;;;4.90;3.13;;;8.40;99.90;;;;;;5027116;28;20185;-42
2023/12/21 14:40:05;;;;;;;2.90;2.27;;;8.30;99.90;;;;;;5033711;28;20188;-42
2023/12/21 14:42:33;;;;;;;2.33;1.67;;;8.30;99.90;;;;;;5033388;28;20195;-42
2023/12/21 14:45:00;;;;;;;2.00;1.90;;;8.30;99.90;;;;;;5045194;28;20236;-43
2023/12/21 14:47:29;;;;;;;0.77;0.73;;;8.30;99.90;;;;;;5021207;28;20177;-42
2023/12/21 14:49:56;;;;;;;0.60;0.60;;;8.30;99.90;;;;;;5032117;28;20181;-42
2023/12/21 14:52:22;;;;;;;1.30;0.50;;;8.30;99.90;;;;;;5027145;28;20205;-42
2023/12/21 14:54:48;;;;;;;0.77;0.70;;;8.20;99.90;;;;;;5034304;28;20197;-42
2023/12/21 14:57:15;;;;;;;0.80;0.70;;;8.20;99.90;;;;;;5040611;28;20210;-41
2023/12/21 14:59:40;;;;;;;0.80;0.70;;;8.20;99.90;;;;;;5046501;28;20186;-42
2023/12/21 15:02:06;;;;;;;0.70;0.70;;;8.10;99.90;;;;;;5028070;28;20201;-42
2023/12/21 15:04:35;;;;;;;0.90;0.90;;;8.10;99.90;;;;;;5051886;28;20305;-42
2023/12/21 15:07:06;;;;;;;1.37;1.00;;;8.10;99.90;;;;;;5052667;28;20188;-44
2023/12/21 15:09:33;;;;;;;1.60;1.20;;;8.10;99.90;;;;;;5047694;28;20190;-43
2023/12/21 15:11:59;;;;;;;1.53;1.17;;;8.10;99.90;;;;;;5032840;28;20205;-42
2023/12/21 15:14:27;;;;;;;1.27;0.80;;;8.00;99.90;;;;;;5034009;28;20181;-42
2023/12/21 15:16:53;;;;;;;0.70;0.70;;;8.10;99.90;;;;;;5043581;28;20190;-42
2023/12/21 15:19:20;;;;;;;1.60;1.13;;;8.10;99.90;;;;;;5036210;28;20188;-43
2023/12/21 15:21:47;;;;;;;0.67;0.67;;;8.10;99.90;;;;;;5041645;28;20215;-42
2023/12/21 15:24:13;;;;;;;0.70;0.70;;;8.10;99.90;;;;;;5026022;28;20205;-42
2023/12/21 15:26:39;;;;;;;0.80;0.80;;;8.10;99.90;;;;;;5027991;28;20181;-43
2023/12/21 15:29:07;;;;;;;1.03;0.90;;;8.10;99.90;;;;;;5043769;28;20181;-41
2023/12/21 15:31:34;;;;;;;0.63;0.63;;;8.10;99.90;;;;;;5058840;28;20201;-42
2023/12/21 15:34:01;;;;;;;1.17;1.10;;;8.10;99.90;;;;;;5059172;28;20201;-43
2023/12/21 15:36:26;;;;;;;1.03;0.97;;;8.10;99.90;;;;;;5041480;28;20189;-42
2023/12/21 15:38:52;;;;;;;2.00;1.30;;;8.10;99.90;;;;;;5031966;28;20193;-43
2023/12/21 15:41:22;;;;;;;1.27;1.00;;;8.10;99.90;;;;;;5037460;28;20251;-43
2023/12/21 15:43:49;;;;;;;0.90;0.90;;;8.10;99.90;;;;;;5066131;28;20315;-42
2023/12/21 15:46:16;;;;;;;1.37;1.00;;;8.10;99.90;;;;;;5042348;28;20177;-42
2023/12/21 15:48:42;;;;;;;0.93;0.83;;;8.10;99.90;;;;;;5033403;28;20266;-42
2023/12/21 15:51:08;;;;;;;0.90;0.70;;;8.10;99.90;;;;;;5035221;28;20216;-42
2023/12/21 15:53:33;;;;;;;1.20;0.93;;;8.10;99.90;;;;;;5035481;28;20194;-42
2023/12/21 15:55:59;;;;;;;1.00;0.90;;;8.10;99.90;;;;;;5047315;28;20480;-42
2023/12/21 15:58:25;;;;;;;1.33;1.23;;;8.10;99.90;;;;;;5024370;28;20190;-42
2023/12/21 16:00:51;;;;;;;2.33;2.13;;;8.10;99.90;;;;;;5045897;28;20217;-43
2023/12/21 16:03:17;;;;;;;1.23;1.10;;;8.10;99.90;;;;;;5039411;28;20287;-42
2023/12/21 16:05:43;;;;;;;3.10;2.50;;;8.10;99.90;;;;;;5045021;28;20178;-42
2023/12/21 16:08:10;;;;;;;1.97;1.70;;;8.10;99.90;;;;;;5043491;28;20251;-43
2023/12/21 16:10:36;;;;;;;1.97;1.87;;;8.10;99.90;;;;;;5041107;28;20192;-42
2023/12/21 16:13:03;;;;;;;1.37;1.27;;;8.10;99.90;;;;;;5037653;28;20206;-42
2023/12/21 16:15:28;;;;;;;1.30;1.20;;;8.10;99.90;;;;;;5042138;28;20190;-43
2023/12/21 16:17:54;;;;;;;1.77;0.80;;;8.20;99.90;;;;;;5040704;28;20186;-43
2023/12/21 16:20:20;;;;;;;1.40;1.13;;;8.20;99.90;;;;;;5036519;28;20181;-42
2023/12/21 16:22:47;;;;;;;27.23;14.33;;;8.20;99.90;;;;;;5024760;28;20209;-43
2023/12/21 16:25:16;;;;;;;2.50;2.30;;;8.20;99.90;;;;;;5062271;28;20701;-43
2023/12/21 16:27:42;;;;;;;1.40;1.30;;;8.20;99.90;;;;;;5039398;28;20231;-42
2023/12/21 16:30:14;;;;;;;1.50;0.70;;;8.20;99.90;;;;;;5024771;28;20186;-42
2023/12/21 16:32:39;;;;;;;1.50;1.40;;;8.20;99.90;;;;;;5036714;28;20193;-42
2023/12/21 16:35:06;;;;;;;1.10;0.90;;;8.20;99.90;;;;;;5027165;28;20282;-43
2023/12/21 16:37:32;;;;;;;1.50;1.33;;;8.20;99.90;;;;;;5027501;28;20276;-42
2023/12/21 16:40:00;;;;;;;1.60;1.50;;;8.20;99.90;;;;;;5043998;28;20176;-42
2023/12/21 16:42:28;;;;;;;1.50;1.40;;;8.20;99.90;;;;;;5040429;28;20198;-42
2023/12/21 16:44:55;;;;;;;2.40;1.40;;;8.20;99.90;;;;;;5040357;28;20605;-42
2023/12/21 16:47:21;;;;;;;1.60;1.40;;;8.20;99.90;;;;;;5019950;28;20196;-42
2023/12/21 16:49:48;;;;;;;1.60;1.30;;;8.20;99.90;;;;;;5040417;28;20209;-43
2023/12/21 16:52:14;;;;;;;1.30;1.20;;;8.30;99.90;;;;;;5035917;28;20270;-42
2023/12/21 16:54:40;;;;;;;1.53;1.43;;;8.30;99.90;;;;;;5022387;28;20249;-42
2023/12/21 16:57:08;;;;;;;1.30;1.20;;;8.30;99.90;;;;;;5042290;28;20189;-42
2023/12/21 16:59:34;;;;;;;2.23;1.40;;;8.30;99.90;;;;;;5024697;28;20177;-43
2023/12/21 17:02:00;;;;;;;1.67;1.30;;;8.30;99.90;;;;;;5026382;28;20214;-42
2023/12/21 17:04:27;;;;;;;2.83;2.13;;;8.30;99.90;;;;;;5043893;28;20206;-42
2023/12/21 17:06:54;;;;;;;3.37;2.60;;;8.30;99.90;;;;;;5041853;28;20174;-42
2023/12/21 17:09:21;;;;;;;2.30;1.70;;;8.40;99.90;;;;;;5065286;28;20224;-42
2023/12/21 17:11:48;;;;;;;2.20;1.50;;;8.40;99.90;;;;;;5021930;28;20201;-43
2023/12/21 17:14:16;;;;;;;2.00;1.20;;;8.40;99.90;;;;;;5042322;28;20185;-42
2023/12/21 17:16:42;;;;;;;4.07;2.77;;;8.40;99.90;;;;;;5036032;28;20201;-42
2023/12/21 17:19:08;;;;;;;10.87;6.33;;;8.40;99.90;;;;;;5025628;28;20212;-42
2023/12/21 17:21:34;;;;;;;6.73;4.00;;;8.40;99.90;;;;;;5056509;28;20206;-43
2023/12/21 17:24:04;;;;;;;7.00;4.20;;;8.40;99.90;;;;;;5029886;28;20208;-43
2023/12/21 17:26:31;;;;;;;2.30;1.70;;;8.40;99.90;;;;;;5025973;28;20183;-42
2023/12/21 17:29:01;;;;;;;2.27;1.07;;;8.40;99.90;;;;;;5042409;28;20230;-43
2023/12/21 17:31:27;;;;;;;1.93;1.17;;;8.40;99.90;;;;;;5039813;28;20190;-43
2023/12/21 17:33:54;;;;;;;1.13;0.90;;;8.40;99.90;;;;;;5025787;28;20713;-42
2023/12/21 17:36:21;;;;;;;2.27;1.20;;;8.40;99.90;;;;;;5040467;28;20186;-43
2023/12/21 17:38:47;;;;;;;0.60;0.60;;;8.40;99.90;;;;;;5042810;28;20185;-43
2023/12/21 17:41:13;;;;;;;1.17;0.70;;;8.50;99.90;;;;;;5028150;28;20212;-41
2023/12/21 17:43:43;;;;;;;1.30;1.00;;;8.40;99.90;;;;;;5028556;28;20210;-42
2023/12/21 17:46:17;;;;;;;1.93;1.03;;;8.40;99.90;;;;;;5045821;28;20178;-43
2023/12/21 17:48:43;;;;;;;2.60;1.40;;;8.40;99.90;;;;;;5037574;28;20182;-42
2023/12/21 17:51:10;;;;;;;3.50;1.70;;;8.50;99.90;;;;;;5033279;28;20188;-43
2023/12/21 17:53:35;;;;;;;1.63;1.30;;;8.40;99.90;;;;;;5038699;28;20214;-41
2023/12/21 17:56:01;;;;;;;2.77;1.80;;;8.40;99.90;;;;;;5042221;28;20197;-44
2023/12/21 17:58:27;;;;;;;5.30;3.53;;;8.40;99.90;;;;;;5051580;28;20220;-43
2023/12/21 18:00:53;;;;;;;2.50;2.20;;;8.40;99.90;;;;;;5031547;28;20197;-44
2023/12/21 18:03:20;;;;;;;1.30;1.20;;;8.40;99.90;;;;;;5039993;28;20266;-44
2023/12/21 18:05:46;;;;;;;2.43;2.03;;;8.40;99.90;;;;;;5029393;28;20181;-43
2023/12/21 18:08:14;;;;;;;7.87;7.07;;;8.50;99.90;;;;;;5040308;28;20174;-42
2023/12/21 18:10:40;;;;;;;4.80;4.40;;;8.50;99.90;;;;;;5033645;28;20178;-42
2023/12/21 18:13:05;;;;;;;1.47;1.37;;;8.50;99.90;;;;;;5047157;28;20236;-42
2023/12/21 18:15:32;;;;;;;1.70;1.60;;;8.50;99.90;;;;;;5041664;28;20205;-43
2023/12/21 18:17:58;;;;;;;1.17;1.00;;;8.50;99.90;;;;;;5049506;28;20201;-36
2023/12/21 18:20:24;;;;;;;0.97;0.90;;;8.60;99.90;;;;;;5027474;28;20174;-38
2023/12/21 18:22:50;;;;;;;2.50;1.07;;;8.60;99.90;;;;;;5038972;28;20251;-42
2023/12/21 18:25:17;;;;;;;1.07;0.80;;;8.60;99.90;;;;;;5033417;28;20285;-43
2023/12/21 18:27:44;;;;;;;1.80;1.53;;;8.60;99.90;;;;;;5039807;28;20642;-43
2023/12/21 18:30:10;;;;;;;1.47;1.37;;;8.50;99.90;;;;;;5054931;28;20170;-42
2023/12/21 18:32:37;;;;;;;2.00;1.00;;;8.50;99.90;;;;;;5022093;28;20201;-42
2023/12/21 18:35:04;;;;;;;1.03;0.93;;;8.50;99.90;;;;;;5023142;28;20193;-42
2023/12/21 18:37:29;;;;;;;1.23;1.13;;;8.50;99.90;;;;;;5025001;28;20190;-38
2023/12/21 18:39:55;;;;;;;2.13;1.93;;;8.50;99.90;;;;;;5057165;28;20193;-38
2023/12/21 18:42:21;;;;;;;1.33;1.20;;;8.50;99.90;;;;;;5024458;28;20208;-42
2023/12/21 18:44:47;;;;;;;1.57;1.33;;;8.50;99.90;;;;;;5035280;28;20209;-42
2023/12/21 18:47:15;;;;;;;1.00;0.90;;;8.50;99.90;;;;;;5002448;28;20185;-42
2023/12/21 18:49:41;;;;;;;1.67;1.40;;;8.60;99.90;;;;;;5018636;28;20175;-42
2023/12/21 18:52:07;;;;;;;1.90;1.20;;;8.60;99.90;;;;;;5039283;28;20212;-42
2023/12/21 18:54:33;;;;;;;1.90;1.50;;;8.70;99.90;;;;;;5047518;28;20232;-42
2023/12/21 18:56:58;;;;;;;1.50;1.23;;;8.60;99.90;;;;;;5037530;28;20261;-42
2023/12/21 18:59:24;;;;;;;2.60;1.50;;;8.70;99.90;;;;;;5036763;28;20182;-42
2023/12/21 19:01:50;;;;;;;1.33;1.00;;;8.70;99.90;;;;;;5045976;28;20204;-42
2023/12/21 19:04:16;;;;;;;1.90;0.80;;;8.70;99.90;;;;;;5043852;28;20283;-43
2023/12/21 19:06:44;;;;;;;1.60;1.00;;;8.80;99.90;;;;;;5038030;28;20185;-37
2023/12/21 19:09:12;;;;;;;2.10;0.80;;;8.80;99.90;;;;;;5024316;28;20186;-45
2023/12/21 19:11:38;;;;;;;2.57;1.27;;;8.80;99.90;;;;;;5050476;28;20195;-43
2023/12/21 19:14:05;;;;;;;2.07;0.87;;;8.90;99.90;;;;;;5045388;28;20178;-44
2023/12/21 19:16:31;;;;;;;4.47;1.80;;;8.90;99.90;;;;;;5036981;28;20182;-44
2023/12/21 19:18:58;;;;;;;3.30;1.67;;;8.90;99.90;;;;;;5020344;28;20240;-45
2023/12/21 19:21:25;;;;;;;1.77;1.07;;;8.80;99.90;;;;;;5021870;28;20234;-44
2023/12/21 19:23:51;;;;;;;2.43;1.77;;;8.90;99.90;;;;;;5025215;28;20209;-45
2023/12/21 19:26:17;;;;;;;1.40;0.90;;;8.90;99.90;;;;;;5035987;28;20178;-44
2023/12/21 19:28:44;;;;;;;1.40;1.00;;;8.90;99.90;;;;;;5049870;28;20197;-44
2023/12/21 19:31:10;;;;;;;0.70;0.70;;;8.80;99.90;;;;;;5037045;28;20178;-44
2023/12/21 19:33:36;;;;;;;1.23;0.73;;;8.80;99.90;;;;;;5037547;28;20311;-44
2023/12/21 19:36:02;;;;;;;1.33;1.10;;;8.80;99.90;;;;;;5037540;28;20182;-43
2023/12/21 19:38:28;;;;;;;0.73;0.63;;;8.80;99.90;;;;;;5037507;28;20261;-43
2023/12/21 19:40:55;;;;;;;1.77;1.10;;;8.70;99.90;;;;;;5037753;28;20198;-43
2023/12/21 19:43:21;;;;;;;2.70;1.20;;;8.70;99.90;;;;;;5037331;28;20262;-44
2023/12/21 19:45:47;;;;;;;3.00;0.97;;;8.70;99.90;;;;;;5037306;28;20197;-44
2023/12/21 19:48:14;;;;;;;2.13;0.90;;;8.80;99.90;;;;;;5072337;28;20182;-43
2023/12/21 19:50:44;;;;;;;1.70;1.10;;;8.80;99.90;;;;;;5037666;28;20224;-44
2023/12/21 19:53:11;;;;;;;1.37;1.00;;;8.80;99.90;;;;;;5026785;28;20218;-44
2023/12/21 19:55:39;;;;;;;3.20;0.97;;;8.80;99.90;;;;;;5048266;28;20190;-44
2023/12/21 19:58:09;;;;;;;1.00;1.00;;;8.80;99.90;;;;;;5018008;28;20183;-44
2023/12/21 20:00:37;;;;;;;2.03;1.20;;;8.70;99.90;;;;;;5027634;28;20178;-44